createdAt,value
2023-05-24T00:00:22.110Z,102236.22
2023-05-24T00:02:49.337Z,102237.03
2023-05-24T00:05:16.934Z,102235.16
2023-05-24T00:07:44.311Z,102232.47
2023-05-24T00:10:12.119Z,102229.78
2023-05-24T00:12:39.233Z,102229.72
2023-05-24T00:15:07.266Z,102232.28
2023-05-24T00:17:41.273Z,102226.06
2023-05-24T00:20:13.809Z,102223.31
2023-05-24T00:22:41.811Z,102224.94
2023-05-24T00:25:09.539Z,102216.09
2023-05-24T00:27:40.141Z,102217.81
2023-05-24T00:30:08.229Z,102212.44
2023-05-24T00:32:35.353Z,102214.97
2023-05-24T00:35:02.420Z,102215.72
2023-05-24T00:37:29.689Z,102215.59
2023-05-24T00:39:56.804Z,102213.72
2023-05-24T00:42:24.260Z,102210.91
2023-05-24T00:44:51.606Z,102203.75
2023-05-24T00:47:18.696Z,102207.09
2023-05-24T00:49:46.440Z,102208.69
2023-05-24T00:52:13.802Z,102210.38
2023-05-24T00:54:40.998Z,102212.03
2023-05-24T00:57:08.509Z,102211.00
2023-05-24T00:59:36.044Z,102210.94
2023-05-24T01:02:03.248Z,102216.09
2023-05-24T01:04:32.556Z,102204.63
2023-05-24T01:07:37.513Z,102210.66
2023-05-24T01:10:31.894Z,102199.09
2023-05-24T01:13:12.676Z,102198.91
2023-05-24T01:16:05.725Z,102198.75
2023-05-24T01:18:39.306Z,102193.38
2023-05-24T01:21:38.914Z,102190.56
2023-05-24T01:24:22.746Z,102195.66
2023-05-24T01:27:11.818Z,102191.19
2023-05-24T01:29:39.997Z,102194.50
2023-05-24T01:32:08.784Z,102192.59
2023-05-24T01:34:35.803Z,102194.28
2023-05-24T01:37:02.806Z,102191.53
2023-05-24T01:39:31.089Z,102195.78
2023-05-24T01:42:31.026Z,102196.59
2023-05-24T01:45:25.625Z,102196.41
2023-05-24T01:48:19.646Z,102187.56
2023-05-24T01:51:00.264Z,102191.81
2023-05-24T01:53:39.568Z,102195.22
2023-05-24T01:56:07.649Z,102190.69
2023-05-24T01:58:36.393Z,102188.91
2023-05-24T02:01:03.823Z,102176.56
2023-05-24T02:03:31.910Z,102186.91
2023-05-24T02:05:59.123Z,102178.16
2023-05-24T02:08:26.176Z,102190.25
2023-05-24T02:10:53.193Z,102174.34
2023-05-24T02:13:20.341Z,102183.88
2023-05-24T02:15:47.999Z,102185.53
2023-05-24T02:18:15.343Z,102187.13
2023-05-24T02:20:42.573Z,102189.66
2023-05-24T02:23:09.904Z,102186.09
2023-05-24T02:25:37.296Z,102187.69
2023-05-24T02:28:04.340Z,102185.88
2023-05-24T02:30:31.378Z,102190.19
2023-05-24T02:32:58.511Z,102192.69
2023-05-24T02:35:25.939Z,102195.16
2023-05-24T02:37:52.959Z,102206.44
2023-05-24T02:40:19.945Z,102199.34
2023-05-24T02:42:47.046Z,102196.66
2023-05-24T02:45:14.074Z,102194.81
2023-05-24T02:47:41.638Z,102191.13
2023-05-24T02:50:09.630Z,102184.06
2023-05-24T02:52:36.726Z,102193.66
2023-05-24T02:55:04.672Z,102195.19
2023-05-24T02:57:34.235Z,102190.66
2023-05-24T03:00:01.438Z,102195.75
2023-05-24T03:02:34.098Z,102193.88
2023-05-24T03:05:01.300Z,102192.88
2023-05-24T03:07:28.304Z,102198.03
2023-05-24T03:09:55.618Z,102203.09
2023-05-24T03:12:22.785Z,102202.09
2023-05-24T03:14:49.812Z,102195.09
2023-05-24T03:17:17.027Z,102202.91
2023-05-24T03:19:44.300Z,102203.75
2023-05-24T03:22:11.358Z,102193.19
2023-05-24T03:24:38.568Z,102199.31
2023-05-24T03:27:06.704Z,102198.31
2023-05-24T03:29:33.836Z,102192.19
2023-05-24T03:32:01.021Z,102190.50
2023-05-24T03:34:28.151Z,102192.28
2023-05-24T03:36:55.353Z,102195.69
2023-05-24T03:39:22.365Z,102199.25
2023-05-24T03:41:49.621Z,102197.44
2023-05-24T03:44:16.804Z,102196.53
2023-05-24T03:46:43.869Z,102194.81
2023-05-24T03:49:10.971Z,102193.09
2023-05-24T03:51:38.019Z,102191.41
2023-05-24T03:54:05.292Z,102199.31
2023-05-24T03:56:32.323Z,102199.31
2023-05-24T03:59:03.820Z,102197.75
2023-05-24T04:01:34.713Z,102196.06
2023-05-24T04:04:05.525Z,102196.19
2023-05-24T04:06:32.610Z,102208.53
2023-05-24T04:09:01.164Z,102200.78
2023-05-24T04:11:28.934Z,102197.59
2023-05-24T04:13:57.730Z,102194.28
2023-05-24T04:16:26.257Z,102213.69
2023-05-24T04:18:58.005Z,102207.81
2023-05-24T04:21:25.302Z,102207.28
2023-05-24T04:23:52.463Z,102205.03
2023-05-24T04:26:21.271Z,102197.72
2023-05-24T04:28:48.754Z,102199.94
2023-05-24T04:31:16.606Z,102203.06
2023-05-24T04:33:44.070Z,102199.16
2023-05-24T04:36:11.745Z,102201.34
2023-05-24T04:38:41.138Z,102197.53
2023-05-24T04:41:08.347Z,102206.78
2023-05-24T04:43:35.469Z,102209.72
2023-05-24T04:46:02.892Z,102209.28
2023-05-24T04:48:30.171Z,102211.31
2023-05-24T04:50:58.466Z,102204.66
2023-05-24T04:53:25.897Z,102213.72
2023-05-24T04:55:53.449Z,102205.28
2023-05-24T04:58:20.507Z,102208.13
2023-05-24T05:00:47.889Z,102204.91
2023-05-24T05:03:15.197Z,102211.25
2023-05-24T05:05:42.389Z,102210.69
2023-05-24T05:08:09.892Z,102208.16
2023-05-24T05:10:37.579Z,102213.72
2023-05-24T05:13:04.776Z,102218.28
2023-05-24T05:15:32.741Z,102207.09
2023-05-24T05:18:00.363Z,102204.69
2023-05-24T05:20:27.675Z,102200.56
2023-05-24T05:22:54.967Z,102201.66
2023-05-24T05:25:22.394Z,102200.13
2023-05-24T05:27:49.519Z,102209.22
2023-05-24T05:30:16.756Z,102223.41
2023-05-24T05:32:43.938Z,102224.47
2023-05-24T05:35:11.167Z,102221.13
2023-05-24T05:37:38.254Z,102221.31
2023-05-24T05:40:06.119Z,102217.94
2023-05-24T05:42:33.317Z,102221.69
2023-05-24T05:45:00.534Z,102220.97
2023-05-24T05:47:28.838Z,102222.94
2023-05-24T05:49:56.002Z,102212.56
2023-05-24T05:52:23.260Z,102219.78
2023-05-24T05:54:51.039Z,102223.50
2023-05-24T05:57:24.094Z,102226.28
2023-05-24T05:59:51.555Z,102225.56
2023-05-24T06:02:19.196Z,102229.31
2023-05-24T06:04:47.235Z,102228.56
2023-05-24T06:07:14.523Z,102241.06
2023-05-24T06:09:41.857Z,102235.03
2023-05-24T06:12:09.002Z,102234.31
2023-05-24T06:14:38.537Z,102243.22
2023-05-24T06:17:09.332Z,102241.56
2023-05-24T06:19:36.369Z,102250.50
2023-05-24T06:22:03.695Z,102245.31
2023-05-24T06:24:30.946Z,102246.28
2023-05-24T06:26:58.073Z,102245.47
2023-05-24T06:29:25.418Z,102250.81
2023-05-24T06:31:52.915Z,102254.44
2023-05-24T06:34:23.707Z,102255.41
2023-05-24T06:36:52.938Z,102259.91
2023-05-24T06:39:20.327Z,102259.13
2023-05-24T06:41:47.585Z,102257.41
2023-05-24T06:44:14.876Z,102253.19
2023-05-24T06:46:42.620Z,102245.34
2023-05-24T06:49:09.922Z,102255.09
2023-05-24T06:51:38.041Z,102257.75
2023-05-24T06:54:05.179Z,102255.16
2023-05-24T06:56:33.178Z,102245.50
2023-05-24T06:59:00.640Z,102259.69
2023-05-24T07:01:28.236Z,102259.78
2023-05-24T07:03:55.514Z,102266.91
2023-05-24T07:06:22.624Z,102267.81
2023-05-24T07:08:49.687Z,102265.19
2023-05-24T07:11:16.980Z,102268.72
2023-05-24T07:13:44.053Z,102264.31
2023-05-24T07:16:11.834Z,102263.44
2023-05-24T07:18:41.517Z,102263.44
2023-05-24T07:21:08.868Z,102269.59
2023-05-24T07:23:37.028Z,102271.41
2023-05-24T07:26:05.508Z,102267.88
2023-05-24T07:28:33.228Z,102271.41
2023-05-24T07:31:00.532Z,102283.75
2023-05-24T07:33:27.674Z,102279.31
2023-05-24T07:35:54.986Z,102289.03
2023-05-24T07:38:22.480Z,102281.97
2023-05-24T07:40:49.615Z,102289.13
2023-05-24T07:43:16.895Z,102284.66
2023-05-24T07:45:44.227Z,102277.56
2023-05-24T07:48:11.968Z,102277.53
2023-05-24T07:50:39.091Z,102287.22
2023-05-24T07:53:06.379Z,102281.81
2023-05-24T07:55:33.800Z,102280.81
2023-05-24T07:58:01.403Z,102287.91
2023-05-24T08:00:29.651Z,102278.19
2023-05-24T08:02:57.385Z,102278.31
2023-05-24T08:05:24.816Z,102276.56
2023-05-24T08:07:53.454Z,102278.34
2023-05-24T08:10:20.632Z,102280.09
2023-05-24T08:12:50.088Z,102276.53
2023-05-24T08:15:17.370Z,102277.50
2023-05-24T08:17:44.754Z,102278.47
2023-05-24T08:20:15.769Z,102281.16
2023-05-24T08:22:43.715Z,102274.91
2023-05-24T08:25:14.353Z,102274.91
2023-05-24T08:27:41.487Z,102283.81
2023-05-24T08:30:09.440Z,102276.72
2023-05-24T08:32:36.788Z,102271.38
2023-05-24T08:35:19.103Z,102267.72
2023-05-24T08:37:49.366Z,102256.94
2023-05-24T08:40:17.539Z,102276.34
2023-05-24T08:42:46.465Z,102272.75
2023-05-24T08:45:15.940Z,102262.06
2023-05-24T08:47:43.618Z,102264.63
2023-05-24T08:50:11.625Z,102259.25
2023-05-24T08:52:39.865Z,102256.75
2023-05-24T08:55:08.610Z,102251.50
2023-05-24T08:57:41.636Z,102252.38
2023-05-24T09:00:13.088Z,102253.28
2023-05-24T09:02:42.696Z,102253.25
2023-05-24T09:05:14.567Z,102254.84
2023-05-24T09:07:45.001Z,102244.06
2023-05-24T09:10:12.609Z,102246.78
2023-05-24T09:12:44.229Z,102244.91
2023-05-24T09:15:11.922Z,102236.06
2023-05-24T09:17:40.744Z,102236.97
2023-05-24T09:20:11.551Z,102245.06
2023-05-24T09:22:42.073Z,102252.13
2023-05-24T09:25:14.030Z,102242.44
2023-05-24T09:27:41.675Z,102249.56
2023-05-24T09:30:13.035Z,102253.22
2023-05-24T09:32:41.446Z,102243.50
2023-05-24T09:35:10.564Z,102247.84
2023-05-24T09:37:41.388Z,102244.25
2023-05-24T09:40:20.334Z,102244.06
2023-05-24T09:42:51.663Z,102239.53
2023-05-24T09:45:21.449Z,102243.56
2023-05-24T09:47:49.996Z,102235.28
2023-05-24T09:50:17.980Z,102241.50
2023-05-24T09:52:45.766Z,102236.84
2023-05-24T09:55:21.856Z,102229.31
2023-05-24T09:58:08.644Z,102226.34
2023-05-24T10:00:41.631Z,102224.16
2023-05-24T10:03:11.992Z,102211.34
2023-05-24T10:05:42.826Z,102222.31
2023-05-24T10:08:11.738Z,102219.13
2023-05-24T10:10:38.845Z,102222.84
2023-05-24T10:13:06.062Z,102236.91
2023-05-24T10:15:33.381Z,102231.44
2023-05-24T10:18:02.498Z,102217.47
2023-05-24T10:20:30.425Z,102220.28
2023-05-24T10:23:04.695Z,102224.38
2023-05-24T10:25:35.205Z,102223.03
2023-05-24T10:28:08.927Z,102230.84
2023-05-24T10:30:48.356Z,102225.16
2023-05-24T10:33:16.914Z,102223.94
2023-05-24T10:35:45.738Z,102213.66
2023-05-24T10:38:13.004Z,102214.59
2023-05-24T10:40:43.835Z,102224.47
2023-05-24T10:43:11.261Z,102212.00
2023-05-24T10:45:40.922Z,102219.34
2023-05-24T10:48:14.029Z,102213.84
2023-05-24T10:50:42.774Z,102216.81
2023-05-24T10:53:19.158Z,102212.69
2023-05-24T10:56:06.257Z,102213.44
2023-05-24T10:58:54.842Z,102211.69
2023-05-24T11:01:30.378Z,102203.66
2023-05-24T11:04:17.355Z,102211.91
2023-05-24T11:06:58.248Z,102200.84
2023-05-24T11:09:27.568Z,102204.78
2023-05-24T11:12:09.694Z,102204.00
2023-05-24T11:14:40.000Z,102201.81
2023-05-24T11:17:08.293Z,102209.19
2023-05-24T11:19:36.970Z,102199.09
2023-05-24T11:22:08.007Z,102206.66
2023-05-24T11:24:35.368Z,102206.25
2023-05-24T11:27:03.893Z,102201.50
2023-05-24T11:29:31.460Z,102207.22
2023-05-24T11:32:06.541Z,102206.00
2023-05-24T11:34:34.375Z,102213.13
2023-05-24T11:37:05.637Z,102202.69
2023-05-24T11:39:35.686Z,102200.47
2023-05-24T11:42:07.169Z,102202.88
2023-05-24T11:44:38.208Z,102204.34
2023-05-24T11:47:08.221Z,102209.28
2023-05-24T11:49:36.797Z,102200.50
2023-05-24T11:52:04.365Z,102198.31
2023-05-24T11:54:35.536Z,102198.09
2023-05-24T11:57:03.639Z,102199.91
2023-05-24T11:59:31.146Z,102201.75
2023-05-24T12:02:04.726Z,102194.69
2023-05-24T12:04:33.294Z,102192.03
2023-05-24T12:07:01.592Z,102187.66
2023-05-24T12:09:29.603Z,102200.28
2023-05-24T12:11:58.801Z,102195.22
2023-05-24T12:14:33.377Z,102190.19
2023-05-24T12:17:03.820Z,102193.94
2023-05-24T12:19:37.475Z,102193.13
2023-05-24T12:22:07.411Z,102192.19
2023-05-24T12:24:35.519Z,102194.50
2023-05-24T12:27:07.814Z,102189.50
2023-05-24T12:29:38.685Z,102195.03
2023-05-24T12:32:12.248Z,102189.09
2023-05-24T12:34:44.699Z,102194.28
2023-05-24T12:37:15.700Z,102192.66
2023-05-24T12:39:44.852Z,102197.50
2023-05-24T12:42:16.145Z,102192.53
2023-05-24T12:44:45.169Z,102191.13
2023-05-24T12:47:12.661Z,102182.38
2023-05-24T12:49:39.941Z,102184.09
2023-05-24T12:52:07.249Z,102187.53
2023-05-24T12:54:34.520Z,102189.34
2023-05-24T12:57:03.508Z,102187.78
2023-05-24T12:59:31.203Z,102180.91
2023-05-24T13:01:58.524Z,102177.44
2023-05-24T13:04:30.790Z,102183.78
2023-05-24T13:06:58.165Z,102176.84
2023-05-24T13:09:26.277Z,102182.31
2023-05-24T13:11:54.410Z,102182.56
2023-05-24T13:14:24.847Z,102174.84
2023-05-24T13:16:52.616Z,102180.38
2023-05-24T13:19:19.835Z,102182.94
2023-05-24T13:21:47.339Z,102170.97
2023-05-24T13:24:18.016Z,102182.06
2023-05-24T13:26:46.153Z,102182.28
2023-05-24T13:31:45.023Z,102185.28
2023-05-24T13:34:12.668Z,102183.81
2023-05-24T13:36:40.406Z,102174.97
2023-05-24T13:41:40.864Z,102170.13
2023-05-24T13:44:08.816Z,102165.19
2023-05-24T13:46:36.808Z,102170.03
2023-05-24T13:49:04.961Z,102172.97
2023-05-24T13:51:33.093Z,102170.19
2023-05-24T13:54:01.466Z,102167.31
2023-05-24T13:56:33.218Z,102171.25
2023-05-24T13:59:03.076Z,102167.69
2023-05-24T14:01:31.363Z,102174.25
2023-05-24T14:03:59.223Z,102183.19
2023-05-24T14:06:26.475Z,102169.09
2023-05-24T14:08:54.229Z,102168.53
2023-05-24T14:11:22.427Z,102176.28
2023-05-24T14:16:20.403Z,102181.53
2023-05-24T14:18:49.357Z,102172.84
2023-05-24T14:21:18.399Z,102164.84
2023-05-24T14:23:45.735Z,102161.53
2023-05-24T14:26:13.477Z,102157.38
2023-05-24T14:28:41.312Z,102158.81
2023-05-24T14:31:08.655Z,102160.41
2023-05-24T14:33:36.067Z,102154.88
2023-05-24T14:36:03.293Z,102153.22
2023-05-24T14:38:30.608Z,102145.59
2023-05-24T14:40:59.867Z,102144.44
2023-05-24T14:43:27.215Z,102152.31
2023-05-24T14:45:54.503Z,102157.88
2023-05-24T14:48:21.714Z,102157.56
2023-05-24T14:50:51.289Z,102165.81
2023-05-24T14:53:18.858Z,102163.63
2023-05-24T14:55:46.216Z,102156.09
2023-05-24T14:58:13.881Z,102157.22
2023-05-24T15:00:43.935Z,102145.75
2023-05-24T15:03:14.565Z,102146.50
2023-05-24T15:05:43.078Z,102144.13
2023-05-24T15:08:13.937Z,102153.19
2023-05-24T15:10:43.902Z,102150.66
2023-05-24T15:13:12.972Z,102146.25
2023-05-24T15:15:40.353Z,102149.19
2023-05-24T15:18:08.362Z,102164.53
2023-05-24T15:20:36.792Z,102154.16
2023-05-24T15:23:04.511Z,102149.19
2023-05-24T15:25:32.108Z,102143.22
2023-05-24T15:27:59.670Z,102154.16
2023-05-24T15:30:27.141Z,102150.00
2023-05-24T15:32:54.521Z,102154.75
2023-05-24T15:35:22.387Z,102153.19
2023-05-24T15:37:49.699Z,102151.59
2023-05-24T15:40:16.944Z,102153.50
2023-05-24T15:42:45.393Z,102156.31
2023-05-24T15:45:12.787Z,102152.94
2023-05-24T15:47:40.558Z,102148.66
2023-05-24T15:50:09.337Z,102153.22
2023-05-24T15:52:37.245Z,102148.81
2023-05-24T15:55:05.409Z,102150.66
2023-05-24T15:57:32.914Z,102148.00
2023-05-24T16:00:00.812Z,102150.66
2023-05-24T16:02:30.144Z,102145.31
2023-05-24T16:04:57.672Z,102154.22
2023-05-24T16:07:24.956Z,102155.97
2023-05-24T16:09:52.340Z,102147.94
2023-05-24T16:12:20.792Z,102151.44
2023-05-24T16:14:48.219Z,102152.28
2023-05-24T16:17:16.202Z,102143.41
2023-05-24T16:19:46.849Z,102140.81
2023-05-24T16:22:14.072Z,102147.13
2023-05-24T16:24:41.761Z,102140.06
2023-05-24T16:27:10.448Z,102144.53
2023-05-24T16:29:39.793Z,102140.97
2023-05-24T16:32:10.102Z,102140.97
2023-05-24T16:34:54.967Z,102132.00
2023-05-24T16:37:23.251Z,102137.22
2023-05-24T16:39:50.573Z,102137.88
2023-05-24T16:42:17.994Z,102129.59
2023-05-24T16:44:45.827Z,102129.28
2023-05-24T16:47:15.614Z,102121.91
2023-05-24T16:49:42.861Z,102119.88
2023-05-24T16:52:10.363Z,102118.13
2023-05-24T16:54:37.678Z,102114.69
2023-05-24T16:57:05.268Z,102124.66
2023-05-24T16:59:33.564Z,102114.03
2023-05-24T17:02:00.899Z,102120.16
2023-05-24T17:04:28.023Z,102116.91
2023-05-24T17:06:55.119Z,102113.34
2023-05-24T17:09:22.696Z,102121.97
2023-05-24T17:11:51.190Z,102114.53
2023-05-24T17:14:18.534Z,102118.75
2023-05-24T17:16:45.818Z,102115.38
2023-05-24T17:19:14.186Z,102117.44
2023-05-24T17:21:41.530Z,102123.72
2023-05-24T17:24:08.914Z,102126.28
2023-05-24T17:26:36.108Z,102132.69
2023-05-24T17:29:03.500Z,102124.69
2023-05-24T17:31:32.811Z,102123.81
2023-05-24T17:34:00.872Z,102125.34
2023-05-24T17:36:31.400Z,102130.41
2023-05-24T17:38:58.706Z,102132.47
2023-05-24T17:41:26.162Z,102137.28
2023-05-24T17:43:54.585Z,102142.13
2023-05-24T17:46:22.088Z,102144.53
2023-05-24T17:48:50.424Z,102148.25
2023-05-24T17:51:20.733Z,102141.34
2023-05-24T17:53:48.237Z,102149.47
2023-05-24T17:56:18.414Z,102148.84
2023-05-24T17:58:47.572Z,102148.81
2023-05-24T18:01:16.275Z,102142.66
2023-05-24T18:03:43.790Z,102138.84
2023-05-24T18:06:11.340Z,102148.50
2023-05-24T18:08:44.133Z,102148.22
2023-05-24T18:11:14.568Z,102150.50
2023-05-24T18:13:45.304Z,102157.22
2023-05-24T18:16:14.448Z,102158.50
2023-05-24T18:18:51.428Z,102152.56
2023-05-24T18:21:20.894Z,102151.09
2023-05-24T18:23:48.513Z,102147.06
2023-05-24T18:26:16.069Z,102152.81
2023-05-24T18:28:43.936Z,102151.44
2023-05-24T18:31:11.126Z,102161.44
2023-05-24T18:33:39.098Z,102157.22
2023-05-24T18:36:07.074Z,102158.31
2023-05-24T18:38:35.217Z,102163.84
2023-05-24T18:41:06.353Z,102157.81
2023-05-24T18:43:33.886Z,102156.16
2023-05-24T18:46:02.390Z,102153.63
2023-05-24T18:48:30.941Z,102154.63
2023-05-24T18:50:59.631Z,102151.16
2023-05-24T18:53:26.828Z,102148.59
2023-05-24T18:56:02.842Z,102150.44
2023-05-24T18:58:31.137Z,102147.88
2023-05-24T19:01:00.722Z,102154.13
2023-05-24T19:03:28.366Z,102147.97
2023-05-24T19:05:57.151Z,102147.13
2023-05-24T19:08:32.658Z,102150.72
2023-05-24T19:11:00.146Z,102157.88
2023-05-24T19:13:27.614Z,102160.56
2023-05-24T19:15:54.793Z,102162.38
2023-05-24T19:18:23.000Z,102157.97
2023-05-24T19:20:50.767Z,102165.97
2023-05-24T19:23:18.232Z,102158.03
2023-05-24T19:25:50.046Z,102170.44
2023-05-24T19:28:17.766Z,102171.34
2023-05-24T19:30:45.116Z,102174.91
2023-05-24T19:33:13.626Z,102174.88
2023-05-24T19:35:43.094Z,102181.97
2023-05-24T19:38:10.272Z,102184.63
2023-05-24T19:40:37.483Z,102187.31
2023-05-24T19:43:07.875Z,102191.72
2023-05-24T19:45:36.955Z,102193.50
2023-05-24T19:48:05.128Z,102191.72
2023-05-24T19:50:33.934Z,102195.25
2023-05-24T19:53:01.930Z,102192.59
2023-05-24T19:55:36.962Z,102195.22
2023-05-24T19:58:04.104Z,102205.84
2023-05-24T20:00:39.513Z,102201.38
2023-05-24T20:03:09.827Z,102210.19
2023-05-24T20:05:38.197Z,102204.00
2023-05-24T20:08:06.674Z,102209.25
2023-05-24T20:10:36.480Z,102216.31
2023-05-24T20:13:05.533Z,102210.97
2023-05-24T20:15:38.241Z,102216.28
2023-05-24T20:18:05.746Z,102210.94
2023-05-24T20:20:34.371Z,102218.00
2023-05-24T20:23:01.694Z,102216.19
2023-05-24T20:25:29.102Z,102215.28
2023-05-24T20:27:57.838Z,102216.16
2023-05-24T20:30:25.758Z,102224.94
2023-05-24T20:32:54.222Z,102230.22
2023-05-24T20:35:25.830Z,102222.25
2023-05-24T20:37:52.943Z,102226.66
2023-05-24T20:40:25.588Z,102225.72
2023-05-24T20:42:55.895Z,102223.97
2023-05-24T20:45:23.912Z,102226.56
2023-05-24T20:47:54.152Z,102229.19
2023-05-24T20:50:21.727Z,102230.03
2023-05-24T20:52:48.885Z,102222.97
2023-05-24T20:55:20.467Z,102229.09
2023-05-24T20:57:48.086Z,102238.78
2023-05-24T21:00:16.153Z,102238.78
2023-05-24T21:02:44.759Z,102242.25
2023-05-24T21:05:15.474Z,102239.59
2023-05-24T21:07:42.740Z,102234.25
2023-05-24T21:10:17.278Z,102243.06
2023-05-24T21:12:44.967Z,102249.22
2023-05-24T21:15:12.611Z,102251.81
2023-05-24T21:17:39.897Z,102251.81
2023-05-24T21:20:07.809Z,102254.41
2023-05-24T21:22:34.958Z,102256.13
2023-05-24T21:25:02.326Z,102257.84
2023-05-24T21:27:29.655Z,102261.31
2023-05-24T21:29:57.206Z,102259.56
2023-05-24T21:32:24.772Z,102267.44
2023-05-24T21:34:52.025Z,102259.47
2023-05-24T21:37:19.387Z,102274.44
2023-05-24T21:39:48.144Z,102274.41
2023-05-24T21:42:15.441Z,102270.84
2023-05-24T21:44:43.864Z,102267.31
2023-05-24T21:47:11.127Z,102271.66
2023-05-24T21:49:38.326Z,102267.19
2023-05-24T21:52:05.934Z,102275.09
2023-05-24T21:54:33.163Z,102273.28
2023-05-24T21:57:01.735Z,102272.34
2023-05-24T21:59:28.888Z,102276.75
2023-05-24T22:01:56.272Z,102274.91
2023-05-24T22:04:23.734Z,102281.94
2023-05-24T22:06:51.293Z,102276.63
2023-05-24T22:09:18.665Z,102287.19
2023-05-24T22:11:46.001Z,102284.50
2023-05-24T22:14:13.691Z,102283.59
2023-05-24T22:16:41.325Z,102284.41
2023-05-24T22:19:14.887Z,102281.75
2023-05-24T22:21:43.937Z,102281.72
2023-05-24T22:24:11.454Z,102282.50
2023-05-24T22:26:41.665Z,102280.72
2023-05-24T22:29:09.024Z,102278.97
2023-05-24T22:31:36.368Z,102285.06
2023-05-24T22:34:03.832Z,102290.34
2023-05-24T22:36:37.943Z,102290.31
2023-05-24T22:39:05.818Z,102283.22
2023-05-24T22:41:32.918Z,102287.59
2023-05-24T22:44:00.066Z,102291.97
2023-05-24T22:46:27.393Z,102279.59
2023-05-24T22:48:56.633Z,102284.00
2023-05-24T22:51:23.905Z,102287.47
2023-05-24T22:53:52.767Z,102289.22
2023-05-24T22:56:20.780Z,102294.50
2023-05-24T22:58:48.156Z,102297.16
2023-05-24T23:01:19.184Z,102297.13
2023-05-24T23:03:46.262Z,102290.06
2023-05-24T23:06:13.317Z,102291.81
2023-05-24T23:08:40.333Z,102296.16
2023-05-24T23:11:13.236Z,102288.19
2023-05-24T23:13:42.394Z,102287.28
2023-05-24T23:16:09.602Z,102292.50
2023-05-24T23:18:37.493Z,102295.09
2023-05-24T23:21:04.895Z,102299.47
2023-05-24T23:23:32.055Z,102303.88
2023-05-24T23:25:59.117Z,102303.78
2023-05-24T23:28:26.319Z,102298.50
2023-05-24T23:30:53.618Z,102309.03
2023-05-24T23:33:20.870Z,102310.75
2023-05-24T23:35:48.180Z,102311.63
2023-05-24T23:38:16.032Z,102310.66
2023-05-24T23:40:43.224Z,102304.50
2023-05-24T23:43:10.256Z,102308.88
2023-05-24T23:45:37.303Z,102299.09
2023-05-24T23:48:04.473Z,102299.94
2023-05-24T23:50:39.881Z,102305.19
2023-05-24T23:53:07.779Z,102298.97
2023-05-24T23:55:34.815Z,102304.22
2023-05-24T23:58:01.906Z,102300.66
